Time;durP1;ratioP1;P1;durP2;ratioP2;P2;SDS_P1;SDS_P2;PMS_P1;PMS_P2;Temp;Humidity;BMP_temperature;BMP_pressure;BME280_temperature;BME280_humidity;BME280_pressure;Samples;Min_cycle;Max_cycle;Signal;HPM_P1;HPM_P2
2022/03/05 00:02:20;;;;;;;33.08;30.45;;;0.50;70.10;;;;;;5095857;28;20643;-71
2022/03/05 00:04:49;;;;;;;33.53;30.83;;;0.50;69.80;;;;;;5095769;28;20544;-70
2022/03/05 00:07:16;;;;;;;33.38;30.42;;;0.50;69.90;;;;;;5095866;28;20194;-71
2022/03/05 00:09:43;;;;;;;34.30;31.30;;;0.50;70.00;;;;;;5095609;28;20197;-71
2022/03/05 00:12:10;;;;;;;35.30;32.22;;;0.50;70.10;;;;;;5095895;28;20216;-70
2022/03/05 00:14:37;;;;;;;33.60;30.67;;;0.40;71.10;;;;;;5095743;28;20201;-71
2022/03/05 00:17:05;;;;;;;32.28;29.70;;;0.40;70.60;;;;;;5095455;28;20260;-71
2022/03/05 00:19:32;;;;;;;33.75;30.90;;;0.40;74.00;;;;;;5095427;28;20201;-71
2022/03/05 00:22:01;;;;;;;33.58;30.67;;;0.30;75.40;;;;;;5095613;28;20305;-71
2022/03/05 00:24:28;;;;;;;32.67;30.02;;;0.30;72.90;;;;;;5095547;28;20716;-70
2022/03/05 00:26:55;;;;;;;33.22;30.33;;;0.30;72.30;;;;;;5095537;28;20673;-71
2022/03/05 00:29:22;;;;;;;33.38;30.75;;;0.30;72.40;;;;;;5095490;28;20224;-70
2022/03/05 00:31:49;;;;;;;33.40;30.60;;;0.30;71.30;;;;;;5095683;28;20221;-71
2022/03/05 00:34:16;;;;;;;32.88;30.08;;;0.30;71.00;;;;;;5095545;28;20288;-70
2022/03/05 00:36:43;;;;;;;32.67;30.02;;;0.30;70.60;;;;;;5095341;28;20233;-70
2022/03/05 00:39:11;;;;;;;33.20;30.40;;;0.20;71.00;;;;;;5094895;28;20205;-71
2022/03/05 00:41:38;;;;;;;32.00;29.27;;;0.20;71.10;;;;;;5095312;28;20223;-71
2022/03/05 00:44:05;;;;;;;32.30;29.60;;;0.20;70.80;;;;;;5094989;28;20296;-71
2022/03/05 00:46:32;;;;;;;32.53;29.83;;;0.20;70.70;;;;;;5095469;28;20280;-70
2022/03/05 00:48:59;;;;;;;32.60;29.98;;;0.20;70.80;;;;;;5095114;28;20198;-70
2022/03/05 00:51:26;;;;;;;31.33;28.80;;;0.10;71.30;;;;;;5094953;28;20737;-70
2022/03/05 00:53:53;;;;;;;33.63;30.75;;;0.00;72.10;;;;;;5095200;28;20229;-70
2022/03/05 00:56:21;;;;;;;32.05;29.45;;;0.10;76.10;;;;;;5094967;28;20218;-70
2022/03/05 00:58:48;;;;;;;32.42;29.70;;;0.10;76.10;;;;;;5094829;28;20284;-70
2022/03/05 01:01:15;;;;;;;32.92;30.25;;;0.10;72.80;;;;;;5094740;28;20264;-70
2022/03/05 01:03:43;;;;;;;31.70;29.30;;;0.10;71.40;;;;;;5095022;28;20202;-70
2022/03/05 01:06:10;;;;;;;33.67;30.95;;;0.10;71.40;;;;;;5094429;28;20198;-70
2022/03/05 01:08:37;;;;;;;33.08;30.38;;;0.10;71.30;;;;;;5094843;28;20286;-70
2022/03/05 01:11:04;;;;;;;31.85;29.45;;;0.00;71.40;;;;;;5094336;28;20243;-70
2022/03/05 01:13:32;;;;;;;34.35;31.60;;;0.10;71.20;;;;;;5094639;28;20201;-70
2022/03/05 01:15:59;;;;;;;34.08;31.02;;;0.00;71.20;;;;;;5094682;28;20233;-70
2022/03/05 01:18:26;;;;;;;33.33;30.67;;;0.10;71.20;;;;;;5094531;28;20192;-70
2022/03/05 01:20:52;;;;;;;33.33;30.73;;;0.10;70.90;;;;;;5094998;28;20201;-70
2022/03/05 01:23:19;;;;;;;33.95;30.75;;;0.00;71.00;;;;;;5094699;28;20202;-70
2022/03/05 01:25:46;;;;;;;33.88;30.92;;;-0.10;71.70;;;;;;5094307;28;20197;-70
2022/03/05 01:28:13;;;;;;;33.78;31.00;;;-0.10;72.20;;;;;;5094251;28;20197;-71
2022/03/05 01:30:41;;;;;;;33.83;30.98;;;-0.20;74.00;;;;;;5094288;28;20193;-71
2022/03/05 01:33:08;;;;;;;33.30;30.50;;;-0.20;73.10;;;;;;5094419;28;20761;-70
2022/03/05 01:35:35;;;;;;;34.25;31.10;;;-0.20;72.60;;;;;;5094281;28;20678;-70
2022/03/05 01:38:02;;;;;;;33.78;31.13;;;-0.20;72.50;;;;;;5093984;28;20307;-71
2022/03/05 01:40:30;;;;;;;33.50;30.70;;;-0.10;71.90;;;;;;5094036;28;20591;-71
2022/03/05 01:42:57;;;;;;;33.67;30.92;;;-0.20;73.00;;;;;;5093957;28;20213;-71
2022/03/05 01:45:26;;;;;;;31.67;29.10;;;-0.30;72.90;;;;;;5094128;28;20205;-70
2022/03/05 01:47:55;;;;;;;33.72;31.17;;;-0.30;73.40;;;;;;5094023;28;20280;-71
2022/03/05 01:50:22;;;;;;;34.08;31.17;;;-0.30;72.80;;;;;;5093754;28;20675;-70
2022/03/05 01:52:49;;;;;;;33.15;30.55;;;-0.30;72.50;;;;;;5093794;28;20216;-71
2022/03/05 01:55:17;;;;;;;33.35;30.60;;;-0.30;72.20;;;;;;5093831;28;20198;-71
2022/03/05 01:57:44;;;;;;;33.20;30.50;;;-0.30;72.50;;;;;;5093735;28;20213;-70
2022/03/05 02:00:13;;;;;;;31.67;29.00;;;-0.40;72.90;;;;;;5093051;28;20209;-71
2022/03/05 02:02:40;;;;;;;32.13;29.52;;;-0.40;73.00;;;;;;5093666;28;20695;-71
2022/03/05 02:05:09;;;;;;;32.65;30.25;;;-0.40;72.90;;;;;;5093369;28;20201;-71
2022/03/05 02:07:36;;;;;;;31.35;28.77;;;-0.50;73.30;;;;;;5093546;28;20262;-71
2022/03/05 02:10:04;;;;;;;33.50;30.85;;;-0.50;73.60;;;;;;5093271;28;20636;-70
2022/03/05 02:12:33;;;;;;;33.83;31.35;;;-0.50;73.40;;;;;;5093485;28;20218;-71
2022/03/05 02:15:00;;;;;;;32.08;29.40;;;-0.50;73.50;;;;;;5093531;28;20224;-70
2022/03/05 02:17:28;;;;;;;32.22;29.45;;;-0.50;73.40;;;;;;5092542;28;20765;-71
2022/03/05 02:19:55;;;;;;;32.97;30.27;;;-0.60;73.60;;;;;;5093207;28;20206;-70
2022/03/05 02:22:24;;;;;;;33.58;30.83;;;-0.60;74.10;;;;;;5093422;28;20222;-70
2022/03/05 02:24:53;;;;;;;32.47;29.60;;;-0.60;73.90;;;;;;5093365;28;20205;-70
2022/03/05 02:27:23;;;;;;;33.03;30.52;;;-0.60;73.80;;;;;;5093380;28;20219;-71
2022/03/05 02:29:50;;;;;;;32.72;30.23;;;-0.60;73.90;;;;;;5093198;28;20196;-71
2022/03/05 02:32:18;;;;;;;32.30;29.55;;;-0.60;73.90;;;;;;5093308;28;20221;-71
2022/03/05 02:34:45;;;;;;;32.15;29.67;;;-0.60;73.90;;;;;;5093097;28;20208;-71
2022/03/05 02:37:13;;;;;;;32.53;29.75;;;-0.60;74.00;;;;;;5092960;28;20221;-71
2022/03/05 02:39:41;;;;;;;32.80;30.25;;;-0.70;74.20;;;;;;5092656;28;20204;-71
2022/03/05 02:42:09;;;;;;;32.97;30.35;;;-0.70;74.30;;;;;;5092926;28;20215;-70
2022/03/05 02:44:36;;;;;;;31.80;29.25;;;-0.80;74.50;;;;;;5092895;28;20283;-71
2022/03/05 02:47:03;;;;;;;32.85;30.10;;;-0.80;74.50;;;;;;5092794;28;20287;-70
2022/03/05 02:49:30;;;;;;;31.90;29.60;;;-0.70;74.50;;;;;;5092593;28;20199;-71
2022/03/05 02:51:57;;;;;;;32.08;29.67;;;-0.70;74.30;;;;;;5092909;28;20781;-71
2022/03/05 02:54:26;;;;;;;31.33;28.85;;;-0.80;74.20;;;;;;5092849;28;20921;-71
2022/03/05 02:56:54;;;;;;;32.28;29.60;;;-0.80;74.40;;;;;;5092699;28;20212;-71
2022/03/05 02:59:21;;;;;;;32.38;29.83;;;-0.80;74.90;;;;;;5092320;28;20209;-70
2022/03/05 03:01:48;;;;;;;31.30;28.90;;;-0.90;75.10;;;;;;5092722;28;20769;-71
2022/03/05 03:04:15;;;;;;;32.03;29.45;;;-0.90;75.30;;;;;;5092722;28;20315;-71
2022/03/05 03:06:42;;;;;;;32.00;29.40;;;-0.90;75.30;;;;;;5092844;28;20254;-70
2022/03/05 03:09:08;;;;;;;32.75;29.95;;;-0.90;75.30;;;;;;5092584;28;20201;-71
2022/03/05 03:11:35;;;;;;;32.60;30.10;;;-0.90;75.30;;;;;;5092560;28;20713;-70
2022/03/05 03:14:03;;;;;;;32.28;29.63;;;-0.90;74.90;;;;;;5092684;28;20205;-70
2022/03/05 03:16:30;;;;;;;32.47;29.83;;;-0.80;74.70;;;;;;5092535;28;20292;-71
2022/03/05 03:18:57;;;;;;;30.92;28.63;;;-0.90;74.80;;;;;;5092529;28;20207;-71
2022/03/05 03:21:24;;;;;;;32.10;29.40;;;-0.90;75.00;;;;;;5092354;28;20228;-71
2022/03/05 03:23:51;;;;;;;31.20;28.45;;;-1.00;75.20;;;;;;5092659;28;20291;-70
2022/03/05 03:26:18;;;;;;;32.47;29.80;;;-1.00;75.60;;;;;;5092669;28;20678;-70
2022/03/05 03:28:45;;;;;;;31.65;28.95;;;-1.00;75.80;;;;;;5093795;28;20265;-70
2022/03/05 03:31:13;;;;;;;32.38;29.98;;;-1.10;76.70;;;;;;5096689;28;20258;-70
2022/03/05 03:33:40;;;;;;;32.30;29.65;;;-1.10;76.20;;;;;;5096971;28;20207;-70
2022/03/05 03:36:07;;;;;;;32.40;29.80;;;-1.10;76.00;;;;;;5096405;28;20196;-70
2022/03/05 03:38:34;;;;;;;32.60;30.00;;;-1.00;75.70;;;;;;5096599;28;20720;-70
2022/03/05 03:41:01;;;;;;;31.55;29.00;;;-1.00;75.40;;;;;;5096612;28;20624;-70
2022/03/05 03:43:28;;;;;;;31.63;29.17;;;-1.00;75.40;;;;;;5096299;28;20288;-70
2022/03/05 03:45:55;;;;;;;31.35;29.02;;;-1.00;75.40;;;;;;5096455;28;20254;-70
2022/03/05 03:48:23;;;;;;;30.15;27.95;;;-1.10;76.50;;;;;;5096567;28;20191;-70
2022/03/05 03:50:51;;;;;;;31.88;29.35;;;-1.10;76.50;;;;;;5096102;28;20658;-70
2022/03/05 03:53:18;;;;;;;31.80;29.40;;;-1.10;76.30;;;;;;5096249;28;20662;-71
2022/03/05 03:55:45;;;;;;;31.75;29.35;;;-1.10;75.90;;;;;;5096033;28;20735;-71
2022/03/05 03:58:12;;;;;;;31.73;29.40;;;-1.20;77.10;;;;;;5096032;28;20240;-71
2022/03/05 04:00:39;;;;;;;33.17;30.38;;;-1.20;78.60;;;;;;5095792;28;20295;-70
2022/03/05 04:03:06;;;;;;;30.35;27.80;;;-1.20;85.20;;;;;;5096054;28;20270;-70
2022/03/05 04:05:34;;;;;;;32.08;29.38;;;-1.10;80.50;;;;;;5095925;28;20284;-71
2022/03/05 04:10:45;;;;;;;31.55;29.05;;;-1.20;77.60;;;;;;5095781;28;20237;-71
2022/03/05 04:13:12;;;;;;;30.38;28.10;;;-1.20;77.10;;;;;;5096009;28;20200;-71
2022/03/05 04:15:39;;;;;;;31.90;29.05;;;-1.20;76.80;;;;;;5095879;28;20195;-71
2022/03/05 04:18:07;;;;;;;31.40;29.02;;;-1.30;76.70;;;;;;5095650;28;20307;-71
2022/03/05 04:20:35;;;;;;;31.42;28.83;;;-1.30;76.70;;;;;;5095467;28;20558;-71
2022/03/05 04:23:02;;;;;;;31.02;28.73;;;-1.30;77.00;;;;;;5095599;28;20220;-71
2022/03/05 04:25:29;;;;;;;31.63;29.15;;;-1.30;77.30;;;;;;5095508;28;20300;-71
2022/03/05 04:27:56;;;;;;;31.10;28.88;;;-1.40;77.30;;;;;;5095570;28;20192;-70
2022/03/05 04:30:23;;;;;;;32.15;29.85;;;-1.40;77.10;;;;;;5095466;28;20205;-70
2022/03/05 04:32:50;;;;;;;30.85;28.40;;;-1.40;76.90;;;;;;5095576;28;20248;-70
2022/03/05 04:35:17;;;;;;;33.70;31.00;;;-1.40;77.10;;;;;;5095370;28;20193;-71
2022/03/05 04:37:46;;;;;;;31.02;28.50;;;-1.40;77.10;;;;;;5095055;28;20220;-71
2022/03/05 04:40:15;;;;;;;31.42;28.92;;;-1.40;77.10;;;;;;5094204;28;20206;-70
2022/03/05 04:42:42;;;;;;;31.27;28.98;;;-1.50;77.20;;;;;;5095279;28;20213;-70
2022/03/05 04:45:10;;;;;;;31.77;29.25;;;-1.40;77.10;;;;;;5095027;28;20292;-71
2022/03/05 04:47:37;;;;;;;31.98;29.17;;;-1.40;76.90;;;;;;5095199;28;20650;-71
2022/03/05 04:50:05;;;;;;;32.28;29.45;;;-1.50;77.10;;;;;;5094794;28;20196;-70
2022/03/05 04:52:32;;;;;;;32.83;30.45;;;-1.50;77.30;;;;;;5095171;28;20721;-70
2022/03/05 04:55:00;;;;;;;32.05;29.38;;;-1.60;77.60;;;;;;5095050;28;20241;-71
2022/03/05 04:57:27;;;;;;;31.52;28.92;;;-1.50;77.60;;;;;;5094853;28;20249;-71
2022/03/05 04:59:54;;;;;;;30.58;28.35;;;-1.50;77.40;;;;;;5094617;28;20714;-70
2022/03/05 05:02:21;;;;;;;32.60;29.85;;;-1.50;77.30;;;;;;5094830;28;20224;-71
2022/03/05 05:04:48;;;;;;;31.27;29.02;;;-1.50;77.20;;;;;;5094813;28;20228;-70
2022/03/05 05:07:15;;;;;;;32.58;29.90;;;-1.50;77.30;;;;;;5094769;28;20248;-70
2022/03/05 05:09:43;;;;;;;32.13;29.42;;;-1.50;77.20;;;;;;5094633;28;20203;-70
2022/03/05 05:12:11;;;;;;;31.02;28.77;;;-1.60;77.60;;;;;;5094704;28;20216;-71
2022/03/05 05:14:38;;;;;;;31.77;29.27;;;-1.60;78.00;;;;;;5094718;28;20200;-70
2022/03/05 05:17:05;;;;;;;32.28;29.70;;;-1.60;78.40;;;;;;5094622;28;20203;-71
2022/03/05 05:19:32;;;;;;;31.90;29.50;;;-1.60;79.40;;;;;;5094336;28;20196;-71
2022/03/05 05:22:04;;;;;;;31.88;29.40;;;-1.60;79.60;;;;;;5094491;28;20243;-71
2022/03/05 05:24:33;;;;;;;32.72;30.02;;;-1.60;79.30;;;;;;5094586;28;20202;-71
2022/03/05 05:27:01;;;;;;;32.00;29.45;;;-1.70;78.80;;;;;;5094472;28;20200;-71
2022/03/05 05:29:30;;;;;;;33.97;31.05;;;-1.70;78.60;;;;;;5094013;28;20196;-71
2022/03/05 05:31:57;;;;;;;32.72;30.27;;;-1.70;78.60;;;;;;5094428;28;20213;-71
2022/03/05 05:34:24;;;;;;;32.38;29.92;;;-1.70;78.50;;;;;;5094385;28;20565;-71
2022/03/05 05:36:51;;;;;;;32.00;29.50;;;-1.60;78.40;;;;;;5094144;28;20200;-70
2022/03/05 05:39:18;;;;;;;31.88;29.50;;;-1.60;78.00;;;;;;5093690;28;20321;-70
2022/03/05 05:41:45;;;;;;;33.65;31.05;;;-1.60;77.90;;;;;;5094077;28;20298;-70
2022/03/05 05:44:12;;;;;;;32.47;29.75;;;-1.70;78.00;;;;;;5093934;28;20200;-71
2022/03/05 05:46:40;;;;;;;33.03;30.35;;;-1.70;78.20;;;;;;5094010;28;20207;-70
2022/03/05 05:49:08;;;;;;;32.10;29.55;;;-1.70;78.20;;;;;;5094047;28;20730;-71
2022/03/05 05:51:35;;;;;;;33.00;30.40;;;-1.70;78.30;;;;;;5093904;28;20217;-71
2022/03/05 05:54:02;;;;;;;33.10;30.13;;;-1.60;78.10;;;;;;5093955;28;20242;-71
2022/03/05 05:56:29;;;;;;;32.85;30.15;;;-1.60;77.50;;;;;;5093729;28;20216;-71
2022/03/05 05:58:56;;;;;;;33.60;31.02;;;-1.70;77.90;;;;;;5093558;28;20225;-71
2022/03/05 06:01:24;;;;;;;33.90;31.10;;;-1.70;78.10;;;;;;5093617;28;20632;-71
2022/03/05 06:03:53;;;;;;;33.72;31.05;;;-1.70;78.10;;;;;;5093737;28;20222;-71
2022/03/05 06:06:21;;;;;;;33.63;30.92;;;-1.70;78.30;;;;;;5093710;28;20630;-71
2022/03/05 06:08:47;;;;;;;33.97;31.17;;;-1.80;78.40;;;;;;5093630;28;20197;-71
2022/03/05 06:11:15;;;;;;;33.05;30.27;;;-1.70;78.50;;;;;;5093199;28;20646;-70
2022/03/05 06:13:42;;;;;;;34.40;31.58;;;-1.60;78.10;;;;;;5093591;28;20203;-71
2022/03/05 06:16:09;;;;;;;34.97;32.10;;;-1.60;78.00;;;;;;5093430;28;20603;-71
2022/03/05 06:18:36;;;;;;;34.25;31.63;;;-1.60;78.00;;;;;;5093492;28;20215;-70
2022/03/05 06:21:05;;;;;;;34.47;31.67;;;-1.50;77.80;;;;;;5093404;28;20230;-70
2022/03/05 06:23:32;;;;;;;36.55;32.97;;;-1.50;77.50;;;;;;5093361;28;20192;-71
2022/03/05 06:25:59;;;;;;;35.67;32.58;;;-1.50;77.60;;;;;;5093380;28;20617;-70
2022/03/05 06:28:29;;;;;;;32.45;29.67;;;-1.50;77.70;;;;;;5093212;28;20719;-71
2022/03/05 06:30:56;;;;;;;34.67;31.85;;;-1.50;77.80;;;;;;5093095;28;20571;-71
2022/03/05 06:33:23;;;;;;;34.55;31.80;;;-1.40;77.90;;;;;;5093189;28;20206;-70
2022/03/05 06:35:50;;;;;;;33.38;30.50;;;-1.40;77.70;;;;;;5093079;28;20192;-70
2022/03/05 06:38:18;;;;;;;35.58;32.53;;;-1.30;77.50;;;;;;5092821;28;20235;-70
2022/03/05 06:40:45;;;;;;;36.20;33.33;;;-1.20;77.20;;;;;;5092959;28;20575;-70
2022/03/05 06:43:12;;;;;;;35.60;32.10;;;-1.20;77.00;;;;;;5092903;28;20296;-71
2022/03/05 06:45:39;;;;;;;36.53;33.72;;;-1.20;77.00;;;;;;5093135;28;20206;-71
2022/03/05 06:48:07;;;;;;;35.50;32.22;;;-1.20;76.80;;;;;;5092909;28;20204;-70
2022/03/05 06:50:34;;;;;;;32.95;30.35;;;-1.20;77.00;;;;;;5092746;28;20202;-70
2022/03/05 06:53:01;;;;;;;34.55;31.70;;;-1.10;77.10;;;;;;5092830;28;20218;-70
2022/03/05 06:55:30;;;;;;;32.65;30.00;;;-1.10;77.10;;;;;;5092959;28;20192;-70
2022/03/05 06:57:57;;;;;;;36.10;33.20;;;-1.10;77.40;;;;;;5092711;28;20201;-70
2022/03/05 07:00:24;;;;;;;33.10;30.58;;;-1.10;77.30;;;;;;5092484;28;20299;-71
2022/03/05 07:02:51;;;;;;;35.80;32.67;;;-1.00;77.00;;;;;;5092488;28;20278;-71
2022/03/05 07:05:18;;;;;;;35.42;32.28;;;-0.90;76.80;;;;;;5092637;28;20682;-71
2022/03/05 07:07:45;;;;;;;35.92;32.83;;;-0.80;76.80;;;;;;5092668;28;20208;-70
2022/03/05 07:10:12;;;;;;;33.83;30.92;;;-0.70;76.40;;;;;;5092314;28;20200;-70
2022/03/05 07:12:41;;;;;;;37.83;34.80;;;-0.70;76.10;;;;;;5092628;28;20218;-71
2022/03/05 07:15:09;;;;;;;36.97;33.65;;;-0.60;75.90;;;;;;5092657;28;20196;-70
2022/03/05 07:17:36;;;;;;;36.10;33.17;;;-0.50;76.20;;;;;;5092628;28;20228;-70
2022/03/05 07:20:04;;;;;;;60.70;36.90;;;-0.40;76.00;;;;;;5092255;28;20763;-71
2022/03/05 07:22:31;;;;;;;33.53;30.60;;;-0.30;75.80;;;;;;5092518;28;20564;-71
2022/03/05 07:24:58;;;;;;;33.45;30.73;;;-0.30;76.20;;;;;;5092464;28;20225;-71
2022/03/05 07:27:25;;;;;;;34.88;31.95;;;-0.20;76.00;;;;;;5092530;28;20201;-70
2022/03/05 07:29:53;;;;;;;35.83;32.88;;;0.00;75.60;;;;;;5092291;28;20554;-70
2022/03/05 07:32:20;;;;;;;36.45;33.55;;;0.10;75.20;;;;;;5092405;28;20223;-71
2022/03/05 07:34:47;;;;;;;35.38;32.22;;;0.10;74.80;;;;;;5092392;28;20232;-71
2022/03/05 07:37:14;;;;;;;36.63;33.20;;;0.30;74.40;;;;;;5092608;28;20193;-70
2022/03/05 07:39:41;;;;;;;35.33;32.22;;;0.30;74.20;;;;;;5091956;28;20214;-71
2022/03/05 07:42:09;;;;;;;37.90;34.65;;;0.50;74.30;;;;;;5092489;28;20228;-70
2022/03/05 07:44:36;;;;;;;37.20;33.85;;;0.60;75.00;;;;;;5092366;28;20379;-70
2022/03/05 07:47:05;;;;;;;36.88;33.85;;;0.70;79.20;;;;;;5092165;28;20629;-70
2022/03/05 07:49:32;;;;;;;36.55;33.55;;;0.70;79.90;;;;;;5092204;28;20255;-71
2022/03/05 07:51:59;;;;;;;37.05;34.00;;;0.80;76.60;;;;;;5092170;28;20306;-70
2022/03/05 07:54:29;;;;;;;36.15;33.35;;;0.90;75.20;;;;;;5092298;28;20689;-70
2022/03/05 07:56:56;;;;;;;35.90;32.95;;;1.00;73.80;;;;;;5092147;28;20243;-71
2022/03/05 07:59:23;;;;;;;38.17;35.03;;;1.10;72.70;;;;;;5091914;28;20295;-70
2022/03/05 08:01:50;;;;;;;36.50;33.00;;;1.20;72.00;;;;;;5092124;28;20228;-71
2022/03/05 08:04:18;;;;;;;36.70;33.60;;;1.30;71.70;;;;;;5092185;28;20198;-71
2022/03/05 08:06:45;;;;;;;36.67;33.47;;;1.40;71.40;;;;;;5092136;28;20194;-71
2022/03/05 08:09:12;;;;;;;35.88;32.78;;;1.60;71.10;;;;;;5091950;28;20195;-71
2022/03/05 08:11:39;;;;;;;39.83;36.15;;;1.60;70.70;;;;;;5092346;28;20772;-70
2022/03/05 08:14:06;;;;;;;38.25;34.90;;;1.80;70.50;;;;;;5092019;28;20202;-71
2022/03/05 08:16:33;;;;;;;38.05;35.13;;;2.00;69.80;;;;;;5094958;28;20289;-71
2022/03/05 08:19:00;;;;;;;39.53;36.15;;;2.20;69.00;;;;;;5095644;28;20651;-71
2022/03/05 08:21:29;;;;;;;38.90;35.25;;;2.40;67.70;;;;;;5095514;28;20223;-71
2022/03/05 08:23:57;;;;;;;40.97;37.45;;;2.30;67.80;;;;;;5095654;28;20191;-71
2022/03/05 08:26:24;;;;;;;37.88;34.28;;;2.50;67.40;;;;;;5095452;28;20289;-71
2022/03/05 08:28:51;;;;;;;38.95;35.25;;;2.60;67.10;;;;;;5095637;28;20556;-71
2022/03/05 08:31:18;;;;;;;38.20;34.88;;;2.70;66.20;;;;;;5095134;28;20220;-71
2022/03/05 08:33:45;;;;;;;39.40;36.13;;;2.80;66.20;;;;;;5095546;28;20236;-71
2022/03/05 08:36:12;;;;;;;38.70;35.38;;;3.00;66.00;;;;;;5095301;28;20283;-71
2022/03/05 08:38:41;;;;;;;37.35;34.05;;;2.90;65.80;;;;;;5095084;28;20219;-71
2022/03/05 08:41:08;;;;;;;39.22;36.03;;;3.10;65.80;;;;;;5095042;28;20220;-71
2022/03/05 08:43:35;;;;;;;38.10;34.97;;;3.20;64.90;;;;;;5095175;28;20236;-71
2022/03/05 08:46:02;;;;;;;40.50;36.80;;;3.20;64.70;;;;;;5095336;28;20196;-71
2022/03/05 08:48:29;;;;;;;37.50;34.40;;;3.30;64.80;;;;;;5095081;28;20202;-71
2022/03/05 08:50:56;;;;;;;37.22;34.05;;;3.50;64.20;;;;;;5094914;28;20285;-71
2022/03/05 08:53:24;;;;;;;38.53;34.95;;;3.70;63.70;;;;;;5095168;28;20206;-71
2022/03/05 08:55:52;;;;;;;38.92;35.30;;;3.70;63.60;;;;;;5094990;28;20293;-71
2022/03/05 08:58:20;;;;;;;36.80;33.60;;;3.60;63.60;;;;;;5094881;28;20616;-71
2022/03/05 09:00:47;;;;;;;37.47;34.42;;;3.70;63.60;;;;;;5094520;28;20204;-71
2022/03/05 09:03:14;;;;;;;36.72;33.72;;;3.60;63.40;;;;;;5094821;28;20201;-71
2022/03/05 09:05:41;;;;;;;39.90;36.50;;;3.60;63.70;;;;;;5094846;28;20197;-71
2022/03/05 09:08:09;;;;;;;35.00;32.25;;;3.80;63.50;;;;;;5094668;28;20291;-71
2022/03/05 09:10:36;;;;;;;35.28;32.28;;;3.80;63.00;;;;;;5094669;28;20214;-71
2022/03/05 09:13:04;;;;;;;36.33;33.28;;;3.90;63.20;;;;;;5094754;28;20233;-71
2022/03/05 09:15:31;;;;;;;36.08;33.15;;;4.10;62.50;;;;;;5094681;28;20259;-71
2022/03/05 09:17:58;;;;;;;37.65;34.60;;;4.20;61.80;;;;;;5094774;28;20203;-71
2022/03/05 09:20:25;;;;;;;37.17;34.08;;;4.30;61.80;;;;;;5094347;28;20221;-71
2022/03/05 09:22:52;;;;;;;35.35;32.47;;;4.40;61.60;;;;;;5094357;28;20271;-71
2022/03/05 09:25:19;;;;;;;36.50;33.50;;;4.60;61.00;;;;;;5094427;28;20240;-71
2022/03/05 09:27:46;;;;;;;34.15;31.27;;;4.70;60.20;;;;;;5094066;28;20662;-71
2022/03/05 09:30:15;;;;;;;33.67;30.98;;;4.70;60.10;;;;;;5094236;28;20193;-71
2022/03/05 09:32:42;;;;;;;35.90;32.88;;;4.60;60.10;;;;;;5094358;28;20220;-71
2022/03/05 09:35:09;;;;;;;34.03;31.27;;;4.60;60.60;;;;;;5094246;28;20279;-71
2022/03/05 09:37:36;;;;;;;36.05;33.15;;;4.70;60.90;;;;;;5094102;28;20196;-71
2022/03/05 09:40:04;;;;;;;34.65;31.85;;;4.80;63.20;;;;;;5093603;28;20581;-71
2022/03/05 09:42:31;;;;;;;33.60;31.00;;;4.90;60.30;;;;;;5094198;28;20244;-71
2022/03/05 09:44:58;;;;;;;35.58;32.90;;;5.10;59.30;;;;;;5094040;28;20198;-71
2022/03/05 09:47:27;;;;;;;34.72;31.67;;;5.20;58.30;;;;;;5093957;28;20196;-71
2022/03/05 09:49:55;;;;;;;39.65;36.22;;;5.00;57.80;;;;;;5093874;28;20193;-71
2022/03/05 09:52:21;;;;;;;36.70;33.65;;;5.20;57.70;;;;;;5093922;28;20221;-71
2022/03/05 09:54:48;;;;;;;35.60;32.53;;;5.20;57.50;;;;;;5093908;28;20678;-71
2022/03/05 09:57:16;;;;;;;32.95;30.27;;;5.30;56.60;;;;;;5093898;28;20204;-71
2022/03/05 09:59:43;;;;;;;32.53;30.02;;;5.40;55.40;;;;;;5093345;28;20212;-71
2022/03/05 10:02:11;;;;;;;35.10;32.25;;;5.40;55.50;;;;;;5093634;28;20676;-71
2022/03/05 10:04:41;;;;;;;32.90;30.20;;;5.40;56.10;;;;;;5093653;28;20198;-71
2022/03/05 10:07:13;;;;;;;34.85;31.77;;;5.50;55.90;;;;;;5093679;28;20399;-71
2022/03/05 10:09:42;;;;;;;36.58;33.88;;;5.60;55.50;;;;;;5093509;28;20205;-71
2022/03/05 10:12:26;;;;;;;34.40;31.40;;;5.40;55.60;;;;;;5093567;28;20236;-71
2022/03/05 10:15:11;;;;;;;31.33;28.95;;;5.70;54.50;;;;;;5093551;28;20201;-71
2022/03/05 10:17:56;;;;;;;33.13;30.63;;;5.70;53.40;;;;;;5093590;28;20292;-71
2022/03/05 10:20:29;;;;;;;32.83;30.23;;;5.70;53.20;;;;;;5093180;28;20300;-71
2022/03/05 10:22:58;;;;;;;40.85;37.05;;;5.70;52.90;;;;;;5093082;28;20680;-71
2022/03/05 10:25:34;;;;;;;39.13;35.22;;;6.00;52.70;;;;;;5093124;28;20193;-71
2022/03/05 10:28:07;;;;;;;43.63;39.67;;;6.10;53.80;;;;;;5093208;28;20200;-71
2022/03/05 10:30:36;;;;;;;31.48;29.27;;;6.20;52.30;;;;;;5093099;28;20555;-71
2022/03/05 10:33:05;;;;;;;31.23;28.70;;;6.50;51.10;;;;;;5093129;28;20308;-71
2022/03/05 10:35:33;;;;;;;30.30;28.02;;;6.40;50.80;;;;;;5093211;28;20197;-71
2022/03/05 10:38:00;;;;;;;29.77;27.58;;;6.30;50.30;;;;;;5092235;28;20210;-71
2022/03/05 10:40:33;;;;;;;32.50;29.90;;;6.40;51.00;;;;;;5092907;28;20218;-71
2022/03/05 10:43:01;;;;;;;29.48;27.48;;;6.50;51.20;;;;;;5092978;28;20302;-71
2022/03/05 10:45:30;;;;;;;32.28;29.80;;;6.60;50.00;;;;;;5093224;28;20201;-71
2022/03/05 10:47:59;;;;;;;32.72;30.23;;;6.60;50.20;;;;;;5092954;28;20197;-71
2022/03/05 10:50:28;;;;;;;31.52;29.02;;;6.60;51.80;;;;;;5092713;28;20199;-71
2022/03/05 10:53:00;;;;;;;31.50;29.23;;;6.60;51.30;;;;;;5093000;28;20252;-71
2022/03/05 10:55:28;;;;;;;30.65;28.15;;;6.60;50.90;;;;;;5093019;28;20300;-71
2022/03/05 10:58:04;;;;;;;34.38;31.48;;;6.90;50.50;;;;;;5092902;28;20196;-71
2022/03/05 11:00:32;;;;;;;33.28;30.67;;;7.10;50.40;;;;;;5092551;28;20228;-72
2022/03/05 11:03:02;;;;;;;33.00;30.25;;;7.10;51.20;;;;;;5092728;28;20325;-71
2022/03/05 11:05:29;;;;;;;32.83;30.05;;;7.20;50.50;;;;;;5092768;28;20251;-71
2022/03/05 11:07:58;;;;;;;30.55;28.35;;;7.10;49.90;;;;;;5092895;28;20197;-72
2022/03/05 11:10:29;;;;;;;31.02;28.73;;;6.80;50.70;;;;;;5092444;28;20196;-71
2022/03/05 11:12:59;;;;;;;31.95;29.65;;;6.70;50.30;;;;;;5092653;28;20227;-71
2022/03/05 11:15:26;;;;;;;32.67;30.15;;;6.70;50.50;;;;;;5092861;28;20264;-71
2022/03/05 11:17:54;;;;;;;32.63;30.10;;;6.60;50.50;;;;;;5092520;28;20656;-71
2022/03/05 11:20:21;;;;;;;33.25;30.77;;;6.70;50.50;;;;;;5092343;28;20310;-71
2022/03/05 11:22:50;;;;;;;31.40;29.02;;;6.70;50.20;;;;;;5092658;28;20224;-71
2022/03/05 11:25:21;;;;;;;33.72;30.77;;;6.70;49.70;;;;;;5092608;28;20198;-71
2022/03/05 11:27:58;;;;;;;31.20;28.70;;;6.40;50.30;;;;;;5092524;28;20193;-71
2022/03/05 11:30:25;;;;;;;31.20;28.80;;;6.40;50.90;;;;;;5092255;28;20201;-71
2022/03/05 11:32:52;;;;;;;31.52;28.95;;;6.40;50.70;;;;;;5092517;28;20217;-71
2022/03/05 11:35:22;;;;;;;32.53;29.90;;;6.60;50.10;;;;;;5092450;28;20200;-71
2022/03/05 11:37:50;;;;;;;31.77;29.48;;;6.60;49.70;;;;;;5092253;28;20206;-71
2022/03/05 11:40:34;;;;;;;31.80;29.30;;;6.70;50.00;;;;;;5092156;28;20222;-71
2022/03/05 11:43:19;;;;;;;30.65;28.40;;;6.80;48.80;;;;;;5092148;28;20300;-71
2022/03/05 11:45:51;;;;;;;30.95;28.63;;;6.80;48.40;;;;;;5092435;28;20198;-71
2022/03/05 11:48:29;;;;;;;30.30;28.10;;;6.80;47.70;;;;;;5092288;28;20656;-71
2022/03/05 11:50:58;;;;;;;31.13;28.95;;;6.70;48.00;;;;;;5095310;28;20659;-71
2022/03/05 11:53:26;;;;;;;30.45;28.45;;;6.70;47.80;;;;;;5096227;28;20288;-71
2022/03/05 11:55:54;;;;;;;30.25;27.85;;;6.90;47.20;;;;;;5096221;28;20205;-71
2022/03/05 11:58:33;;;;;;;29.20;27.02;;;6.90;47.20;;;;;;5096144;28;20281;-71
2022/03/05 12:01:39;;;;;;;30.25;28.25;;;6.70;47.50;;;;;;5095697;28;20226;-72
2022/03/05 12:04:22;;;;;;;29.15;27.15;;;6.80;47.20;;;;;;5096096;28;20201;-71
2022/03/05 12:06:53;;;;;;;29.95;27.85;;;7.00;47.10;;;;;;5095995;28;20197;-71
2022/03/05 12:09:41;;;;;;;28.40;26.30;;;7.00;46.30;;;;;;5095871;28;20198;-71
2022/03/05 12:12:12;;;;;;;30.30;28.10;;;6.90;46.40;;;;;;5096030;28;20300;-71
2022/03/05 12:15:13;;;;;;;30.20;28.08;;;7.00;46.20;;;;;;5095994;28;20198;-71
2022/03/05 12:17:49;;;;;;;29.80;27.70;;;7.00;46.30;;;;;;5095895;28;20202;-71
2022/03/05 12:20:19;;;;;;;29.60;27.50;;;7.10;45.90;;;;;;5095453;28;20693;-71
2022/03/05 12:22:52;;;;;;;29.92;27.83;;;7.10;45.80;;;;;;5095617;28;20629;-71
2022/03/05 12:25:19;;;;;;;31.05;28.85;;;7.10;45.60;;;;;;5095810;28;20225;-71
2022/03/05 12:27:50;;;;;;;31.35;29.05;;;6.80;46.40;;;;;;5095482;28;20293;-71
2022/03/05 12:30:18;;;;;;;29.10;26.88;;;6.80;46.40;;;;;;5095697;28;20246;-71
2022/03/05 12:32:47;;;;;;;30.40;28.20;;;6.80;46.30;;;;;;5095506;28;20216;-71
2022/03/05 12:35:16;;;;;;;30.35;28.10;;;6.90;46.00;;;;;;5095763;28;20201;-71
2022/03/05 12:37:44;;;;;;;29.13;27.02;;;7.00;45.20;;;;;;5095432;28;20206;-71
2022/03/05 12:40:12;;;;;;;29.63;27.55;;;7.10;44.70;;;;;;5094941;28;20220;-71
2022/03/05 12:42:42;;;;;;;30.33;28.25;;;7.20;44.60;;;;;;5095404;28;20308;-71